Disclaimer

Please do not use the information listed here in-flight or in-navigation, as they are not provided to us by the airports but are provided by volunteers, so they might be outdated.

Search


Regions


Airport information page

Radio informations:
Ground (GND) - 122.175 MHz

Airport informations:
Latitude: 51° 57' 25.00" N
Longitude: 004° 26' 14.00" E
Elevation: -15 feet - -5 meters
Operating hours: N/A
Operating agency: Civil government, landing fees and diplomatic clearance may be required
Timezone: UTC+1(+2DT)
Fuel: N/A

Runway information:
06/24 - 7218 x 148 feet< - >2200 x 45 meters

Recent METARs:
EHRD 171925Z AUTO 07009KT 9999 NSC 04/01 Q1030 NOSIG
EHRD 171955Z AUTO 06008KT 9999 NCD 03/01 Q1030 NOSIG
EHRD 172025Z AUTO 06008KT 9999 NCD 02/00 Q1030 NOSIG

Airport on the map: